Time;durP1;ratioP1;P1;durP2;ratioP2;P2;SDS_P1;SDS_P2;PMS_P1;PMS_P2;Temp;Humidity;BMP_temperature;BMP_pressure;BME280_temperature;BME280_humidity;BME280_pressure;Samples;Min_cycle;Max_cycle;Signal;HPM_P1;HPM_P2
2021/05/12 00:00:27;;;;;;;5.93;2.33;;;;;;;14.36;79.48;100544.06;5037186;28;20040;-71
2021/05/12 00:02:54;;;;;;;5.57;1.37;;;;;;;14.28;80.23;100539.94;5040849;28;20041;-72
2021/05/12 00:05:23;;;;;;;9.00;1.33;;;;;;;14.42;79.54;100549.25;5039265;28;20486;-71
2021/05/12 00:07:51;;;;;;;6.13;1.33;;;;;;;14.61;79.15;100546.44;5036189;28;20049;-69
2021/05/12 00:10:20;;;;;;;9.00;1.43;;;;;;;14.71;78.84;100555.84;5035502;28;20053;-69
2021/05/12 00:12:46;;;;;;;4.60;1.80;;;;;;;14.82;78.45;100558.16;5034264;28;20059;-69
2021/05/12 00:15:17;;;;;;;10.43;2.10;;;;;;;14.81;78.49;100558.47;5037435;28;20041;-68
2021/05/12 00:17:47;;;;;;;6.63;1.73;;;;;;;14.80;78.81;100554.84;5036583;28;20052;-68
2021/05/12 00:20:16;;;;;;;6.78;1.80;;;;;;;14.69;79.32;100556.16;5035433;28;20671;-70
2021/05/12 00:25:13;;;;;;;3.45;1.20;;;;;;;14.76;79.14;100539.72;5034179;28;20064;-71
2021/05/12 00:27:41;;;;;;;6.60;1.57;;;;;;;14.78;79.26;100545.03;5035909;28;20041;-72
2021/05/12 00:30:12;;;;;;;3.53;1.50;;;;;;;14.61;79.31;100512.72;5037008;28;20045;-74
2021/05/12 00:32:41;;;;;;;2.90;1.20;;;;;;;14.81;79.06;100528.38;5033986;28;20457;-74
2021/05/12 00:35:09;;;;;;;7.93;1.70;;;;;;;14.85;79.03;100535.06;5043332;28;20405;-74
2021/05/12 00:37:36;;;;;;;8.13;1.80;;;;;;;14.92;78.75;100532.66;5040400;28;20041;-68
2021/05/12 00:40:08;;;;;;;10.13;1.57;;;;;;;14.97;78.61;100526.09;5034091;28;20077;-71
2021/05/12 00:42:35;;;;;;;4.97;1.80;;;;;;;14.82;79.26;100521.63;5036962;28;20479;-80
2021/05/12 00:45:05;;;;;;;10.90;1.60;;;;;;;14.84;79.41;100522.16;5039349;28;20129;-79
2021/05/12 00:47:33;;;;;;;4.57;1.58;;;;;;;14.95;78.92;100522.78;5040093;28;20382;-79
2021/05/12 00:50:01;;;;;;;6.53;1.40;;;;;;;14.93;78.82;100519.44;5036346;28;20053;-80
2021/05/12 00:52:28;;;;;;;11.33;2.27;;;;;;;15.01;78.80;100523.50;5038454;28;22499;-72
2021/05/12 00:54:55;;;;;;;11.67;1.90;;;;;;;15.02;78.66;100519.56;5038502;28;20133;-72
2021/05/12 00:57:23;;;;;;;6.83;0.90;;;;;;;14.94;79.12;100518.31;5039845;28;20083;-71
2021/05/12 00:59:53;;;;;;;6.07;1.40;;;;;;;14.86;79.54;100505.78;5038267;28;20049;-72
2021/05/12 01:02:21;;;;;;;6.20;1.33;;;;;;;14.91;79.20;100499.25;5035290;28;20038;-76
2021/05/12 01:04:48;;;;;;;3.93;1.50;;;;;;;14.96;78.96;100512.38;5042322;28;20076;-75
2021/05/12 01:07:15;;;;;;;8.80;1.40;;;;;;;14.92;79.11;100501.75;5032935;28;20528;-75
2021/05/12 01:09:45;;;;;;;7.07;1.70;;;;;;;14.95;79.10;100510.72;5034173;28;20048;-74
2021/05/12 01:12:12;;;;;;;4.55;1.52;;;;;;;14.95;78.95;100507.91;5036918;28;20053;-74
2021/05/12 01:14:39;;;;;;;4.20;1.10;;;;;;;14.99;78.68;100494.88;5035380;28;20051;-74
2021/05/12 01:17:06;;;;;;;3.10;0.77;;;;;;;15.01;78.65;100482.19;5036983;28;20067;-74
2021/05/12 01:19:34;;;;;;;3.93;0.93;;;;;;;15.09;78.41;100480.59;5033000;28;20049;-71
2021/05/12 01:22:01;;;;;;;3.80;0.60;;;;;;;15.09;78.62;100472.16;5034318;28;20053;-70
2021/05/12 01:24:28;;;;;;;3.27;1.37;;;;;;;15.17;78.48;100477.06;5035936;28;20041;-78
2021/05/12 01:26:55;;;;;;;1.60;0.77;;;;;;;15.20;78.27;100481.22;5035024;28;20053;-78
2021/05/12 01:29:23;;;;;;;1.13;0.63;;;;;;;15.14;78.66;100481.34;5037430;28;20049;-81
2021/05/12 01:31:52;;;;;;;0.97;0.53;;;;;;;15.14;78.54;100477.69;5038876;28;20067;-73
2021/05/12 01:34:21;;;;;;;1.27;0.57;;;;;;;15.17;78.73;100479.88;5036185;28;20045;-72
2021/05/12 01:36:50;;;;;;;1.70;0.80;;;;;;;15.14;78.76;100481.34;5038613;28;20041;-76
2021/05/12 01:39:19;;;;;;;1.07;0.60;;;;;;;15.10;78.54;100462.56;5034339;28;20045;-77
2021/05/12 01:41:46;;;;;;;10.30;1.37;;;;;;;15.19;78.52;100483.22;5031208;28;20529;-77
2021/05/12 01:44:14;;;;;;;3.37;1.17;;;;;;;15.22;78.82;100476.97;5036534;28;20363;-75
2021/05/12 01:46:44;;;;;;;3.00;1.10;;;;;;;15.30;78.58;100489.44;5035979;28;20057;-79
2021/05/12 01:49:12;;;;;;;6.83;1.10;;;;;;;15.32;78.52;100487.16;5032043;28;20041;-79
2021/05/12 01:51:40;;;;;;;11.60;1.47;;;;;;;15.35;78.45;100493.00;5033634;28;20041;-78
2021/05/12 01:54:09;;;;;;;1.60;1.00;;;;;;;15.33;78.46;100477.56;5033642;28;20072;-79
2021/05/12 01:56:38;;;;;;;2.33;1.25;;;;;;;15.36;78.24;100482.56;5041530;28;20124;-81
2021/05/12 01:59:06;;;;;;;6.53;1.77;;;;;;;15.41;78.30;100483.28;5036029;28;20041;-79
2021/05/12 02:01:33;;;;;;;10.90;1.57;;;;;;;15.45;78.08;100479.84;5038181;28;20461;-77
2021/05/12 02:04:05;;;;;;;10.60;1.87;;;;;;;15.38;78.41;100469.88;5035058;28;20053;-80
2021/05/12 02:06:32;;;;;;;14.17;2.20;;;;;;;15.49;78.35;100475.25;5037130;28;20056;-80
2021/05/12 02:09:00;;;;;;;5.43;1.20;;;;;;;15.45;78.49;100477.03;5037129;28;20409;-79
2021/05/12 02:11:27;;;;;;;2.97;0.83;;;;;;;15.20;78.21;100427.78;5038524;28;20056;-79
2021/05/12 02:13:54;;;;;;;9.07;1.57;;;;;;;15.48;78.46;100462.31;5034628;28;20458;-78
2021/05/12 02:16:21;;;;;;;8.00;1.37;;;;;;;15.56;78.47;100473.69;5033150;28;20121;-69
2021/05/12 02:18:48;;;;;;;7.13;1.40;;;;;;;15.55;78.41;100471.16;5038208;28;20076;-82
2021/05/12 02:21:15;;;;;;;6.70;1.23;;;;;;;15.61;78.11;100467.09;5038682;28;20046;-80
2021/05/12 02:23:42;;;;;;;6.63;1.80;;;;;;;15.64;78.13;100460.84;5033610;28;20038;-74
2021/05/12 02:26:08;;;;;;;12.43;1.93;;;;;;;15.60;77.80;100455.00;5040840;28;20264;-75
2021/05/12 02:28:35;;;;;;;18.27;2.60;;;;;;;15.61;77.92;100461.47;5040167;28;20045;-73
2021/05/12 02:31:02;;;;;;;14.50;2.40;;;;;;;15.59;78.23;100458.16;5041401;28;20053;-69
2021/05/12 02:33:29;;;;;;;8.57;1.97;;;;;;;15.30;78.00;100422.75;5031165;28;20042;-68
2021/05/12 02:35:56;;;;;;;10.00;1.73;;;;;;;15.58;77.97;100470.53;5029894;28;20048;-66
2021/05/12 02:38:23;;;;;;;14.97;2.37;;;;;;;15.54;77.98;100466.69;5033572;28;20049;-66
2021/05/12 02:40:50;;;;;;;16.17;2.47;;;;;;;15.55;78.06;100479.59;5037498;28;20052;-67
2021/05/12 02:43:18;;;;;;;17.73;2.43;;;;;;;15.57;77.64;100466.06;5033039;28;20056;-68
2021/05/12 02:45:45;;;;;;;19.17;4.00;;;;;;;15.50;77.82;100474.94;5038818;28;20045;-68
2021/05/12 02:48:11;;;;;;;10.27;2.70;;;;;;;15.54;77.99;100466.69;5040845;28;20053;-67
2021/05/12 02:50:41;;;;;;;6.70;2.47;;;;;;;15.52;78.00;100480.25;5035515;28;20037;-68
2021/05/12 02:53:10;;;;;;;20.75;2.42;;;;;;;15.57;77.75;100469.72;5041133;28;20041;-68
2021/05/12 02:55:37;;;;;;;12.57;2.47;;;;;;;15.53;77.97;100462.22;5037919;28;20045;-72
2021/05/12 02:58:06;;;;;;;20.60;3.40;;;;;;;15.51;77.68;100467.31;5039463;28;20048;-72
2021/05/12 03:00:35;;;;;;;29.50;3.67;;;;;;;15.57;77.74;100469.72;5045421;28;20585;-68
2021/05/12 03:03:02;;;;;;;15.93;2.83;;;;;;;15.51;77.48;100462.53;5039451;28;20056;-76
2021/05/12 03:05:31;;;;;;;22.77;3.27;;;;;;;15.59;77.66;100472.22;5039086;28;20087;-82
2021/05/12 03:07:58;;;;;;;15.60;2.37;;;;;;;15.58;77.26;100484.63;5039587;28;20176;-80
2021/05/12 03:10:26;;;;;;;15.67;3.03;;;;;;;15.30;77.32;100439.63;5042282;28;20128;-80
2021/05/12 03:12:53;;;;;;;20.10;3.33;;;;;;;15.55;77.23;100488.88;5034700;28;20053;-78
2021/05/12 03:15:22;;;;;;;22.73;2.77;;;;;;;15.51;77.29;100492.66;5038792;28;20041;-78
2021/05/12 03:17:53;;;;;;;24.57;2.80;;;;;;;15.32;77.16;100468.31;5041720;28;20390;-76
2021/05/12 03:20:21;;;;;;;14.05;2.42;;;;;;;15.45;77.24;100499.53;5036468;28;20490;-78
2021/05/12 03:33:37;;;;;;;16.27;3.08;;;;;;;15.98;74.27;100498.94;5084124;27;20417;-68
2021/05/12 03:36:05;;;;;;;9.35;2.08;;;;;;;15.83;74.84;100488.88;5079984;28;20059;-68
2021/05/12 03:38:33;;;;;;;22.48;4.35;;;;;;;15.70;75.09;100499.00;5075915;28;20040;-69
2021/05/12 03:41:00;;;;;;;15.47;4.93;;;;;;;15.61;75.44;100495.25;5078421;28;20410;-70
2021/05/12 03:43:27;;;;;;;22.10;3.40;;;;;;;15.40;75.20;100467.56;5091231;22;20457;-72
2021/05/12 03:45:54;;;;;;;20.93;3.47;;;;;;;15.51;75.32;100499.09;5074936;28;20552;-71
2021/05/12 03:48:21;;;;;;;20.27;3.80;;;;;;;15.44;75.76;100495.06;5068392;28;20075;-72
2021/05/12 03:50:48;;;;;;;15.50;2.57;;;;;;;15.26;75.67;100458.31;5069827;28;20063;-70
2021/05/12 03:53:15;;;;;;;20.43;3.40;;;;;;;15.44;75.98;100495.88;5070465;28;20050;-71
2021/05/12 03:55:42;;;;;;;12.60;3.40;;;;;;;15.39;76.09;100496.84;5072158;28;20059;-69
2021/05/12 03:58:09;;;;;;;24.63;3.07;;;;;;;15.36;76.04;100488.19;5069017;28;20048;-68
2021/05/12 04:00:36;;;;;;;28.97;3.97;;;;;;;15.36;76.05;100477.78;5067984;28;20047;-64
2021/05/12 04:03:04;;;;;;;15.47;2.63;;;;;;;15.37;75.92;100476.63;5071121;28;20053;-65
2021/05/12 04:05:31;;;;;;;13.20;2.50;;;;;;;15.28;76.26;100477.66;5072549;28;20127;-69
2021/05/12 04:07:58;;;;;;;23.47;3.50;;;;;;;15.30;76.31;100483.81;5072731;28;20048;-69
2021/05/12 04:10:25;;;;;;;16.90;2.93;;;;;;;15.28;76.44;100474.84;5074631;28;20048;-71
2021/05/12 04:12:52;;;;;;;14.33;3.73;;;;;;;15.28;76.38;100470.09;5069863;28;20398;-69
2021/05/12 04:15:19;;;;;;;12.93;2.23;;;;;;;15.23;76.23;100473.00;5069505;28;20049;-68
2021/05/12 04:17:46;;;;;;;23.47;3.13;;;;;;;15.15;76.06;100449.25;5070722;28;20052;-69
2021/05/12 04:20:16;;;;;;;21.73;3.13;;;;;;;15.35;76.13;100484.56;5066215;28;20064;-68
2021/05/12 04:22:44;;;;;;;21.40;3.00;;;;;;;15.36;75.93;100480.59;5062147;28;20049;-69
2021/05/12 04:25:20;;;;;;;16.33;2.73;;;;;;;15.33;76.24;100481.22;5049781;28;20081;-66
2021/05/12 04:27:48;;;;;;;22.23;3.47;;;;;;;15.25;76.25;100470.72;5054827;28;20144;-68
2021/05/12 04:30:17;;;;;;;14.73;3.17;;;;;;;15.24;76.32;100471.84;5053318;28;20135;-68
2021/05/12 04:32:46;;;;;;;19.02;3.10;;;;;;;15.27;76.09;100464.75;5046776;28;20080;-69
2021/05/12 04:35:17;;;;;;;18.63;2.70;;;;;;;15.27;76.61;100481.63;5040332;28;20041;-67
2021/05/12 04:37:44;;;;;;;21.80;3.23;;;;;;;15.28;76.12;100475.72;5042611;28;20048;-66
2021/05/12 04:40:11;;;;;;;10.50;2.67;;;;;;;15.29;76.31;100466.13;5039061;28;20056;-67
2021/05/12 04:42:38;;;;;;;11.10;2.63;;;;;;;15.27;76.10;100448.69;5040328;28;20053;-65
2021/05/12 04:45:09;;;;;;;25.40;3.33;;;;;;;15.26;76.42;100444.22;5040706;28;20049;-64
2021/05/12 04:47:37;;;;;;;12.70;2.87;;;;;;;15.27;75.97;100437.44;5043315;28;20506;-64
2021/05/12 04:50:06;;;;;;;17.77;4.23;;;;;;;15.28;75.97;100429.84;5035990;28;20045;-65
2021/05/12 04:52:33;;;;;;;18.83;3.13;;;;;;;15.24;76.20;100435.25;5034304;28;20045;-66
2021/05/12 04:54:59;;;;;;;14.97;3.60;;;;;;;15.19;76.28;100437.38;5039808;28;20069;-68
2021/05/12 04:57:26;;;;;;;18.20;3.00;;;;;;;15.24;76.16;100454.97;5034050;28;21324;-68
2021/05/12 04:59:53;;;;;;;18.03;2.80;;;;;;;15.24;76.30;100434.44;5040081;28;20041;-67
2021/05/12 05:02:20;;;;;;;19.77;3.77;;;;;;;15.27;75.96;100447.88;5036148;28;20049;-67
2021/05/12 05:04:47;;;;;;;26.57;4.27;;;;;;;15.26;76.20;100443.41;5038740;28;20056;-71
2021/05/12 05:07:14;;;;;;;16.67;3.03;;;;;;;15.26;76.26;100449.84;5037821;28;20045;-71
2021/05/12 05:09:41;;;;;;;23.47;3.30;;;;;;;15.23;76.16;100444.84;5037567;28;20136;-67
2021/05/12 05:12:08;;;;;;;22.53;3.07;;;;;;;15.34;75.94;100456.72;5035808;28;20535;-67
2021/05/12 05:14:34;;;;;;;21.27;3.80;;;;;;;15.35;76.02;100464.88;5038036;28;20060;-70
2021/05/12 05:17:05;;;;;;;22.33;3.27;;;;;;;15.34;75.74;100446.28;5038382;28;20057;-67
2021/05/12 05:19:32;;;;;;;23.60;3.73;;;;;;;15.37;75.72;100464.53;5041139;28;22071;-67
2021/05/12 05:22:00;;;;;;;24.87;4.33;;;;;;;15.46;75.73;100464.63;5038172;28;20049;-67
2021/05/12 05:24:27;;;;;;;20.83;3.67;;;;;;;15.36;75.78;100438.38;5044640;28;20049;-67
2021/05/12 05:26:54;;;;;;;33.70;4.47;;;;;;;15.35;75.76;100435.88;5040050;28;20041;-67
2021/05/12 05:29:20;;;;;;;21.50;2.73;;;;;;;15.41;75.85;100437.44;5039687;28;20041;-66
2021/05/12 05:31:47;;;;;;;24.60;4.23;;;;;;;15.49;76.01;100447.13;5038109;28;20053;-66
2021/05/12 05:34:14;;;;;;;16.63;4.13;;;;;;;15.52;75.80;100454.91;5037604;28;20042;-68
2021/05/12 05:36:41;;;;;;;28.57;3.40;;;;;;;15.57;75.78;100464.06;5033344;28;20463;-68
2021/05/12 05:39:08;;;;;;;18.70;3.33;;;;;;;15.46;75.94;100444.94;5038254;28;20056;-67
2021/05/12 05:41:35;;;;;;;19.73;3.70;;;;;;;15.57;75.33;100466.06;5039845;28;20570;-66
2021/05/12 05:44:03;;;;;;;16.20;2.67;;;;;;;15.60;75.06;100471.06;5038657;28;20048;-67
2021/05/12 05:46:30;;;;;;;18.50;3.20;;;;;;;15.57;74.92;100471.69;5033050;28;20049;-66
2021/05/12 05:48:57;;;;;;;19.67;3.90;;;;;;;15.69;74.67;100469.22;5032898;28;20059;-68
2021/05/12 05:51:24;;;;;;;9.27;2.77;;;;;;;15.35;75.29;100487.38;5038703;28;20041;-69
2021/05/12 05:53:51;;;;;;;6.03;1.13;;;;;;;15.13;75.78;100509.78;5034578;28;20052;-68
2021/05/12 05:56:17;;;;;;;2.90;1.27;;;;;;;14.91;75.99;100511.31;5038535;28;20041;-69
2021/05/12 05:58:47;;;;;;;7.40;1.65;;;;;;;14.79;76.42;100516.59;5034250;28;20405;-68
2021/05/12 06:01:13;;;;;;;13.77;2.93;;;;;;;14.74;76.61;100519.53;5037751;28;20052;-69
2021/05/12 06:03:40;;;;;;;8.77;2.00;;;;;;;14.77;76.44;100527.34;5036352;28;20045;-69
2021/05/12 06:06:07;;;;;;;8.33;1.50;;;;;;;14.79;76.49;100530.66;5037777;28;20052;-67
2021/05/12 06:08:40;;;;;;;14.10;3.80;;;;;;;14.75;76.45;100532.44;5036904;28;20056;-69
2021/05/12 06:11:10;;;;;;;12.23;2.83;;;;;;;14.71;77.12;100520.16;5035634;28;20061;-70
2021/05/12 06:13:37;;;;;;;7.80;2.40;;;;;;;14.76;77.52;100531.28;5033961;28;20056;-69
2021/05/12 06:16:04;;;;;;;19.10;3.13;;;;;;;14.83;77.19;100514.00;5037802;28;20056;-68
2021/05/12 06:18:31;;;;;;;19.57;2.33;;;;;;;14.82;77.28;100513.19;5035322;28;20049;-68
2021/05/12 06:20:58;;;;;;;15.67;1.97;;;;;;;14.86;77.30;100538.69;5042923;28;20120;-67
2021/05/12 06:23:25;;;;;;;12.80;2.43;;;;;;;14.87;77.22;100555.28;5039051;28;20045;-68
2021/05/12 06:25:56;;;;;;;6.03;1.55;;;;;;;14.79;77.29;100543.88;5034105;28;20052;-67
2021/05/12 06:28:23;;;;;;;18.27;1.87;;;;;;;14.79;77.37;100557.94;5028625;28;20059;-68
2021/05/12 06:30:50;;;;;;;17.23;2.43;;;;;;;14.73;77.74;100560.00;5033126;28;20049;-68
2021/05/12 06:33:17;;;;;;;19.93;2.27;;;;;;;14.94;77.62;100546.44;5035936;28;20385;-68
2021/05/12 06:35:45;;;;;;;7.20;1.83;;;;;;;15.14;77.10;100565.72;5035469;28;20053;-69
2021/05/12 06:38:12;;;;;;;10.17;2.50;;;;;;;15.30;77.29;100569.06;5039426;28;20063;-69
2021/05/12 06:40:38;;;;;;;14.30;2.37;;;;;;;15.57;77.08;100567.41;5035014;28;20045;-69
2021/05/12 06:43:06;;;;;;;18.73;2.00;;;;;;;15.83;76.82;100576.16;5033396;28;20064;-69
2021/05/12 06:45:32;;;;;;;8.80;2.50;;;;;;;15.82;76.16;100571.66;5035324;28;20049;-69
2021/05/12 06:48:02;;;;;;;14.65;2.15;;;;;;;15.99;75.99;100573.81;5035728;28;20068;-69
2021/05/12 06:50:29;;;;;;;15.63;2.22;;;;;;;16.16;75.78;100578.78;5038105;28;20048;-68
2021/05/12 06:52:57;;;;;;;4.07;1.00;;;;;;;16.18;75.70;100557.59;5036543;28;20140;-69
2021/05/12 06:55:26;;;;;;;12.32;2.38;;;;;;;16.29;75.27;100575.94;5037596;28;20473;-68
2021/05/12 06:57:53;;;;;;;5.47;2.55;;;;;;;16.35;75.08;100583.13;5036997;28;20144;-66
2021/05/12 07:00:21;;;;;;;24.55;3.17;;;;;;;16.30;74.57;100586.03;5037823;28;20518;-68
2021/05/12 07:02:51;;;;;;;12.43;2.92;;;;;;;16.14;74.42;100586.72;5036242;28;20054;-68
2021/05/12 07:05:20;;;;;;;9.73;3.60;;;;;;;16.01;74.81;100585.63;5030698;28;20046;-69
2021/05/12 07:07:48;;;;;;;12.48;2.42;;;;;;;16.22;74.62;100577.53;5041574;28;20132;-67
2021/05/12 07:10:15;;;;;;;10.75;2.63;;;;;;;16.43;74.62;100594.78;5031913;28;20041;-69
2021/05/12 07:12:42;;;;;;;10.25;3.05;;;;;;;16.29;74.75;100601.28;5032156;28;20482;-68
2021/05/12 07:15:10;;;;;;;9.55;3.40;;;;;;;16.07;74.32;100587.19;5030699;28;20136;-68
2021/05/12 07:17:39;;;;;;;13.02;1.90;;;;;;;15.99;74.18;100608.44;5031086;28;20046;-68
2021/05/12 07:20:10;;;;;;;9.00;2.15;;;;;;;16.00;74.00;100581.13;5031158;28;20049;-69
2021/05/12 07:22:37;;;;;;;4.43;1.65;;;;;;;16.41;72.99;100602.69;5030338;28;20503;-67
2021/05/12 07:25:04;;;;;;;5.35;1.58;;;;;;;16.68;72.45;100596.94;5039956;28;20049;-68
2021/05/12 07:27:31;;;;;;;6.30;1.60;;;;;;;17.09;71.99;100610.03;5039364;28;20403;-67
2021/05/12 07:29:58;;;;;;;6.40;1.80;;;;;;;17.23;71.59;100596.69;5034808;28;20072;-68
2021/05/12 07:32:25;;;;;;;3.17;1.33;;;;;;;17.45;71.07;100606.22;5033691;28;20399;-67
2021/05/12 07:34:55;;;;;;;6.55;1.55;;;;;;;17.73;71.39;100624.59;5036362;28;20045;-69
2021/05/12 07:37:22;;;;;;;9.82;1.95;;;;;;;18.02;70.47;100631.72;5037816;28;20049;-68
2021/05/12 07:39:49;;;;;;;6.30;1.13;;;;;;;18.15;69.60;100639.22;5032600;28;20047;-68
2021/05/12 07:42:18;;;;;;;3.33;1.08;;;;;;;18.24;69.87;100653.38;5038519;28;20059;-68
2021/05/12 07:44:47;;;;;;;8.40;1.27;;;;;;;18.14;69.83;100626.25;5034647;28;20045;-64
2021/05/12 07:47:15;;;;;;;2.08;0.98;;;;;;;18.45;69.52;100647.91;5035419;28;20575;-68
2021/05/12 07:49:43;;;;;;;1.40;0.98;;;;;;;18.60;68.58;100650.25;5038086;28;20041;-66
2021/05/12 07:52:14;;;;;;;5.93;1.23;;;;;;;18.55;68.16;100663.72;5037880;28;20519;-67
2021/05/12 07:54:46;;;;;;;1.88;0.65;;;;;;;18.43;68.00;100655.91;5029210;28;20037;-66
2021/05/12 07:57:13;;;;;;;7.00;1.00;;;;;;;18.03;68.13;100652.31;5037603;28;20045;-67
2021/05/12 07:59:40;;;;;;;18.20;1.55;;;;;;;17.87;68.18;100660.41;5034957;28;20513;-71
2021/05/12 08:02:07;;;;;;;5.47;0.68;;;;;;;17.85;67.61;100671.22;5036535;28;20179;-67
2021/05/12 08:04:35;;;;;;;3.72;1.40;;;;;;;17.73;67.49;100666.16;5042320;28;20099;-67
2021/05/12 08:07:03;;;;;;;5.07;1.15;;;;;;;17.93;67.45;100676.06;5035134;28;20054;-68
2021/05/12 08:09:30;;;;;;;3.90;0.95;;;;;;;17.82;67.15;100680.34;5039459;28;20111;-70
2021/05/12 08:12:00;;;;;;;8.00;1.55;;;;;;;17.81;67.75;100678.66;5037053;28;20124;-69
2021/05/12 08:14:30;;;;;;;5.43;1.20;;;;;;;17.96;67.64;100681.06;5044248;28;20487;-70
2021/05/12 08:16:57;;;;;;;8.82;2.20;;;;;;;18.09;67.30;100680.09;5039444;28;20049;-70
2021/05/12 08:19:26;;;;;;;11.02;1.80;;;;;;;18.21;66.78;100687.94;5036800;28;20052;-72
2021/05/12 08:22:01;;;;;;;5.40;1.98;;;;;;;18.19;66.28;100684.63;5038403;28;20037;-71
2021/05/12 08:24:28;;;;;;;4.13;1.30;;;;;;;17.67;66.61;100685.22;5041224;28;20048;-69
2021/05/12 08:26:55;;;;;;;9.77;1.83;;;;;;;17.17;67.37;100710.03;5040724;28;20095;-70
2021/05/12 08:29:22;;;;;;;3.35;1.13;;;;;;;17.18;67.67;100715.31;5037966;28;20049;-68
2021/05/12 08:31:49;;;;;;;3.15;0.73;;;;;;;17.01;66.68;100698.28;5034931;28;20470;-68
2021/05/12 08:34:16;;;;;;;4.68;0.73;;;;;;;16.62;67.15;100716.66;5036748;28;20144;-66
2021/05/12 08:36:45;;;;;;;3.58;0.70;;;;;;;16.09;68.20;100698.38;5037250;28;20123;-69
2021/05/12 08:39:12;;;;;;;1.80;0.82;;;;;;;15.87;68.81;100724.47;5037305;28;20551;-69
2021/05/12 08:41:40;;;;;;;6.53;1.52;;;;;;;15.73;69.16;100722.78;5038104;28;20039;-69
2021/05/12 08:44:12;;;;;;;3.97;1.37;;;;;;;15.73;69.55;100718.00;5034980;28;20084;-69
2021/05/12 08:46:41;;;;;;;3.40;0.70;;;;;;;15.64;70.17;100680.41;5036977;28;20041;-68
2021/05/12 08:49:09;;;;;;;2.73;1.20;;;;;;;16.27;70.28;100701.38;5035451;28;20049;-67
2021/05/12 08:51:39;;;;;;;4.22;1.90;;;;;;;16.89;70.09;100706.47;5040506;28;20071;-70
2021/05/12 08:54:11;;;;;;;6.57;1.23;;;;;;;17.53;69.53;100707.06;5036303;28;20049;-69
2021/05/12 08:56:38;;;;;;;10.45;1.88;;;;;;;17.95;68.44;100685.06;5032008;28;20446;-69
2021/05/12 08:59:06;;;;;;;5.28;1.88;;;;;;;18.59;67.82;100704.31;5034794;28;20056;-68
2021/05/12 09:01:33;;;;;;;4.20;1.50;;;;;;;19.03;67.16;100700.34;5037597;28;20055;-68
2021/05/12 09:04:04;;;;;;;5.75;1.70;;;;;;;19.32;66.71;100687.50;5039153;28;20451;-68
2021/05/12 09:06:34;;;;;;;8.07;1.77;;;;;;;19.57;66.62;100683.75;5038337;28;20041;-69
2021/05/12 09:09:04;;;;;;;8.63;1.42;;;;;;;19.85;66.25;100701.19;5037441;28;20053;-70
2021/05/12 09:11:32;;;;;;;9.07;1.35;;;;;;;19.96;65.57;100706.47;5042787;28;20442;-69
2021/05/12 09:14:00;;;;;;;3.90;1.05;;;;;;;19.71;65.32;100708.25;5036099;28;20098;-68
2021/05/12 09:16:32;;;;;;;8.68;1.45;;;;;;;19.36;65.25;100682.81;5037660;28;20049;-67
2021/05/12 09:19:15;;;;;;;3.50;0.85;;;;;;;19.01;65.79;100708.38;5042757;28;20049;-70
2021/05/12 09:22:00;;;;;;;3.35;0.85;;;;;;;18.67;66.03;100701.50;5035671;28;20040;-69
2021/05/12 09:24:37;;;;;;;1.45;0.55;;;;;;;18.23;66.14;100711.06;5040535;28;20169;-68
2021/05/12 09:27:09;;;;;;;7.32;1.00;;;;;;;17.75;66.67;100718.34;5037256;28;20489;-68
2021/05/12 09:29:41;;;;;;;6.85;1.02;;;;;;;17.18;67.12;100692.75;5041396;28;20392;-68
2021/05/12 09:32:10;;;;;;;5.78;1.38;;;;;;;17.01;67.96;100723.66;5034230;28;20507;-68
2021/05/12 09:34:50;;;;;;;4.40;1.25;;;;;;;16.76;68.46;100728.78;5036375;28;20518;-67
2021/05/12 09:37:31;;;;;;;8.07;1.30;;;;;;;16.94;69.13;100721.28;5036290;28;20049;-68
2021/05/12 09:39:59;;;;;;;3.15;0.93;;;;;;;17.20;68.23;100727.13;5036841;28;20055;-68
2021/05/12 09:42:27;;;;;;;4.13;0.90;;;;;;;17.53;67.94;100735.31;5036088;28;20243;-69
2021/05/12 09:45:12;;;;;;;6.13;0.90;;;;;;;17.80;67.95;100727.84;5040927;28;20048;-68
2021/05/12 09:47:45;;;;;;;5.15;1.38;;;;;;;18.29;67.62;100721.06;5033498;28;20045;-68
2021/05/12 09:50:21;;;;;;;7.22;1.08;;;;;;;18.81;66.54;100738.16;5031474;28;20073;-68
2021/05/12 09:53:03;;;;;;;9.98;1.05;;;;;;;19.37;65.84;100730.63;5036358;28;20045;-68
2021/05/12 09:55:37;;;;;;;5.28;1.00;;;;;;;19.97;64.66;100731.66;5035070;28;20553;-67
2021/05/12 09:58:05;;;;;;;6.28;1.77;;;;;;;20.38;64.02;100741.47;5038845;28;20049;-69
2021/05/12 10:00:37;;;;;;;2.42;1.00;;;;;;;20.73;63.02;100724.25;5037215;28;20455;-68
2021/05/12 10:03:05;;;;;;;5.00;0.82;;;;;;;21.15;62.04;100739.25;5033491;28;20059;-68
2021/05/12 10:05:52;;;;;;;5.70;1.38;;;;;;;21.39;61.85;100751.94;5033882;28;20043;-70
2021/05/12 10:08:24;;;;;;;4.40;1.30;;;;;;;21.68;60.55;100760.34;5034568;28;20072;-68
2021/05/12 10:11:21;;;;;;;4.43;1.33;;;;;;;21.93;59.92;100764.06;5030394;28;20595;-68
2021/05/12 10:13:47;;;;;;;4.35;0.85;;;;;;;22.26;58.15;100751.81;5038759;28;20049;-67
2021/05/12 10:16:14;;;;;;;3.35;0.98;;;;;;;22.37;57.14;100775.75;5036189;28;20050;-68
2021/05/12 10:18:42;;;;;;;2.78;1.05;;;;;;;22.55;55.42;100782.03;5039491;28;20103;-69
2021/05/12 10:21:10;;;;;;;2.92;0.95;;;;;;;22.62;54.34;100776.56;5034247;28;20048;-68
2021/05/12 10:23:37;;;;;;;5.22;0.70;;;;;;;22.87;53.57;100780.25;5032307;28;20420;-67
2021/05/12 10:26:04;;;;;;;4.25;0.80;;;;;;;22.98;52.90;100782.63;5034894;28;20130;-68
2021/05/12 10:28:38;;;;;;;2.92;0.55;;;;;;;23.31;53.09;100797.47;5037753;28;20677;-68
2021/05/12 10:31:07;;;;;;;3.22;1.10;;;;;;;23.20;52.53;100790.63;5038104;28;20059;-68
2021/05/12 10:33:51;;;;;;;1.38;0.70;;;;;;;23.16;53.12;100795.38;5034812;28;20522;-68
2021/05/12 10:36:24;;;;;;;1.88;0.90;;;;;;;22.98;53.93;100796.88;5037760;28;20042;-68
2021/05/12 10:38:56;;;;;;;4.68;1.33;;;;;;;23.08;52.89;100799.22;5035286;28;20452;-67
2021/05/12 10:41:49;;;;;;;5.22;1.35;;;;;;;23.47;53.26;100816.66;5036002;28;20042;-67
2021/05/12 10:44:37;;;;;;;4.47;1.05;;;;;;;23.56;52.57;100814.50;5039937;28;20083;-67
2021/05/12 10:47:09;;;;;;;6.82;1.38;;;;;;;23.77;51.86;100815.13;5037511;28;20053;-68
2021/05/12 10:49:39;;;;;;;6.38;1.17;;;;;;;23.71;51.81;100819.44;5036959;28;20060;-69
2021/05/12 10:52:08;;;;;;;4.35;0.93;;;;;;;23.15;52.36;100817.34;5037718;28;20057;-68
2021/05/12 10:54:40;;;;;;;5.68;1.38;;;;;;;22.65;52.90;100834.81;5032165;28;20057;-68
2021/05/12 10:57:09;;;;;;;4.50;1.23;;;;;;;22.45;52.44;100834.56;5036845;28;20061;-67
2021/05/12 10:59:41;;;;;;;5.95;1.23;;;;;;;22.46;51.54;100815.47;5030300;28;20041;-68
2021/05/12 11:02:08;;;;;;;3.53;1.40;;;;;;;22.46;51.61;100841.94;5034581;28;20511;-68
2021/05/12 11:04:35;;;;;;;6.22;1.88;;;;;;;22.66;51.71;100830.78;5041710;28;20040;-69
2021/05/12 11:07:03;;;;;;;3.72;1.15;;;;;;;23.18;50.74;100822.34;5036461;28;20053;-68
2021/05/12 11:09:44;;;;;;;2.42;0.98;;;;;;;23.22;50.74;100828.13;5029744;28;20415;-67
2021/05/12 11:12:16;;;;;;;3.00;1.00;;;;;;;23.08;50.45;100828.53;5032554;28;20045;-68
2021/05/12 11:14:59;;;;;;;7.72;1.13;;;;;;;23.30;49.69;100818.59;5030400;28;20045;-68
2021/05/12 11:17:46;;;;;;;3.63;0.82;;;;;;;23.09;49.38;100827.31;5031866;28;20041;-68
2021/05/12 11:20:21;;;;;;;2.83;1.13;;;;;;;23.30;48.98;100838.56;5038377;28;20045;-68
2021/05/12 11:22:49;;;;;;;5.18;0.90;;;;;;;23.44;48.06;100862.97;5038206;28;20050;-67
2021/05/12 11:25:25;;;;;;;3.08;0.77;;;;;;;23.58;48.31;100849.16;5032054;28;20060;-68
2021/05/12 11:33:39;;;;;;;0.90;0.50;;;;;;;22.67;49.35;100861.75;5036866;28;20172;-68
2021/05/12 11:36:19;;;;;;;2.65;1.38;;;;;;;22.38;49.01;100868.47;5038623;28;20049;-68
2021/05/12 11:38:46;;;;;;;1.38;0.60;;;;;;;22.14;48.60;100868.38;5033273;28;20053;-68
2021/05/12 11:41:21;;;;;;;1.95;0.50;;;;;;;21.69;48.30;100857.78;5030370;28;20045;-67
2021/05/12 11:44:01;;;;;;;2.22;1.00;;;;;;;21.57;49.45;100874.78;5034057;28;20045;-66
2021/05/12 11:46:36;;;;;;;4.72;1.10;;;;;;;21.93;49.19;100869.25;5039885;28;20049;-68
2021/05/12 11:49:09;;;;;;;5.10;1.20;;;;;;;22.35;48.67;100869.16;5046439;28;20104;-68